createdAt,value
2023-05-16T00:00:49.379Z,14.15
2023-05-16T00:03:20.377Z,14.07
2023-05-16T00:06:23.333Z,12.25
2023-05-16T00:13:26.652Z,14.15
2023-05-16T00:16:05.694Z,13.73
2023-05-16T00:18:37.837Z,14.40
2023-05-16T00:21:07.704Z,14.43
2023-05-16T00:23:40.198Z,15.15
2023-05-16T00:26:08.196Z,14.60
2023-05-16T00:28:39.514Z,15.93
2023-05-16T00:31:07.626Z,16.40
2023-05-16T00:33:36.738Z,16.63
2023-05-16T00:36:05.955Z,15.90
2023-05-16T00:38:33.997Z,16.48
2023-05-16T00:41:04.500Z,17.20
2023-05-16T00:43:40.027Z,15.65
2023-05-16T00:46:08.560Z,17.48
2023-05-16T00:49:09.595Z,16.58
2023-05-16T00:51:39.694Z,17.00
2023-05-16T00:54:11.591Z,17.35
2023-05-16T00:56:41.391Z,17.33
2023-05-16T00:59:11.186Z,17.45
2023-05-16T01:01:40.008Z,17.85
2023-05-16T01:04:08.265Z,17.92
2023-05-16T01:06:36.604Z,17.25
2023-05-16T01:09:10.153Z,16.95
2023-05-16T01:12:04.708Z,15.75
2023-05-16T01:15:06.441Z,17.25
2023-05-16T01:17:53.237Z,12.63
2023-05-16T01:20:42.039Z,13.15
2023-05-16T01:23:52.802Z,12.18
2023-05-16T01:26:23.439Z,11.18
2023-05-16T01:28:52.131Z,11.40
2023-05-16T01:31:21.835Z,13.43
2023-05-16T01:33:51.242Z,16.30
2023-05-16T01:36:26.775Z,11.48
2023-05-16T01:39:29.288Z,16.48
2023-05-16T01:42:12.587Z,12.98
2023-05-16T01:45:00.256Z,16.80
2023-05-16T01:47:28.688Z,19.85
2023-05-16T01:50:10.615Z,13.63
2023-05-16T01:52:45.633Z,14.27
2023-05-16T01:55:37.562Z,14.80
2023-05-16T01:58:06.194Z,13.75
2023-05-16T02:00:35.254Z,13.93
2023-05-16T02:03:05.299Z,14.50
2023-05-16T02:05:34.420Z,13.75
2023-05-16T02:08:05.494Z,14.20
2023-05-16T02:10:35.278Z,16.63
2023-05-16T02:13:03.512Z,15.55
2023-05-16T02:15:32.248Z,19.23
2023-05-16T02:18:09.647Z,12.48
2023-05-16T02:20:38.441Z,12.55
2023-05-16T02:23:08.579Z,12.90
2023-05-16T02:25:37.574Z,10.98
2023-05-16T02:28:08.101Z,12.85
2023-05-16T02:30:38.148Z,12.25
2023-05-16T02:33:06.366Z,10.88
2023-05-16T02:35:35.052Z,10.60
2023-05-16T02:38:03.150Z,10.63
2023-05-16T02:40:32.132Z,9.65
2023-05-16T02:43:08.594Z,9.88
2023-05-16T02:45:37.949Z,9.35
2023-05-16T02:48:08.655Z,11.15
2023-05-16T02:50:37.881Z,10.23
2023-05-16T02:53:06.527Z,9.82
2023-05-16T02:55:35.085Z,9.88
2023-05-16T02:58:03.612Z,9.27
2023-05-16T03:00:33.971Z,8.70
2023-05-16T03:03:02.494Z,8.27
2023-05-16T03:05:30.818Z,8.90
2023-05-16T03:07:59.326Z,8.30
2023-05-16T03:10:27.744Z,8.77
2023-05-16T03:12:56.587Z,8.25
2023-05-16T03:15:25.340Z,8.20
2023-05-16T03:17:54.332Z,8.30
2023-05-16T03:20:23.596Z,8.48
2023-05-16T03:22:51.660Z,14.10
2023-05-16T03:25:19.979Z,8.10
2023-05-16T03:27:48.767Z,7.47
2023-05-16T03:30:55.527Z,7.30
2023-05-16T03:37:59.422Z,7.10
2023-05-16T03:40:27.711Z,7.30
2023-05-16T03:42:57.752Z,8.80
2023-05-16T03:45:27.300Z,7.65
2023-05-16T03:48:04.174Z,7.60
2023-05-16T03:50:34.196Z,8.77
2023-05-16T03:53:05.194Z,7.55
2023-05-16T03:55:33.611Z,7.00
2023-05-16T03:58:01.850Z,6.93
2023-05-16T04:00:30.204Z,6.70
2023-05-16T04:02:58.571Z,7.57
2023-05-16T04:05:27.411Z,6.70
2023-05-16T04:07:56.082Z,5.80
2023-05-16T04:10:24.761Z,7.25
2023-05-16T04:12:53.002Z,5.60
2023-05-16T04:15:21.231Z,6.20
2023-05-16T04:17:49.746Z,4.75
2023-05-16T04:20:17.727Z,6.55
2023-05-16T04:22:52.869Z,4.78
2023-05-16T04:25:22.614Z,4.67
2023-05-16T04:27:50.623Z,4.90
2023-05-16T04:30:19.432Z,4.50
2023-05-16T04:32:48.778Z,4.65
2023-05-16T04:35:18.051Z,4.63
2023-05-16T04:37:46.388Z,4.93
2023-05-16T04:40:16.229Z,5.05
2023-05-16T04:43:23.044Z,4.53
2023-05-16T04:46:01.993Z,4.63
2023-05-16T04:48:52.584Z,5.57
2023-05-16T04:51:20.769Z,9.43
2023-05-16T04:53:50.878Z,4.35
2023-05-16T04:56:20.588Z,4.75
2023-05-16T04:58:49.003Z,6.53
2023-05-16T05:01:17.501Z,4.95
2023-05-16T05:03:48.432Z,4.85
2023-05-16T05:06:19.242Z,4.70
2023-05-16T05:08:50.122Z,5.05
2023-05-16T05:11:23.386Z,4.35
2023-05-16T05:14:12.860Z,3.95
2023-05-16T05:16:41.194Z,4.30
2023-05-16T05:19:10.378Z,5.22
2023-05-16T05:21:39.592Z,4.28
2023-05-16T05:24:10.755Z,4.28
2023-05-16T05:26:41.858Z,4.43
2023-05-16T05:29:10.303Z,4.63
2023-05-16T05:31:42.186Z,4.72
2023-05-16T05:34:10.574Z,4.55
2023-05-16T05:36:38.988Z,3.90
2023-05-16T05:39:07.177Z,4.80
2023-05-16T05:41:35.895Z,4.78
2023-05-16T05:44:04.432Z,3.60
2023-05-16T05:46:33.249Z,4.80
2023-05-16T05:49:02.748Z,4.20
2023-05-16T05:51:32.445Z,4.05
2023-05-16T05:54:02.699Z,4.65
2023-05-16T05:56:32.063Z,3.85
2023-05-16T05:59:01.370Z,4.18
2023-05-16T06:01:31.602Z,4.18
2023-05-16T06:04:04.964Z,3.95
2023-05-16T06:06:40.446Z,4.03
2023-05-16T06:09:14.062Z,3.88
2023-05-16T06:11:47.512Z,4.65
2023-05-16T06:14:20.676Z,4.03
2023-05-16T06:16:49.227Z,4.28
2023-05-16T06:19:17.604Z,3.80
2023-05-16T06:21:46.308Z,4.57
2023-05-16T06:24:15.576Z,4.38
2023-05-16T06:26:50.169Z,4.45
2023-05-16T06:29:19.550Z,4.00
2023-05-16T06:31:52.285Z,4.10
2023-05-16T06:34:28.433Z,4.43
2023-05-16T06:39:24.779Z,4.18
2023-05-16T06:41:57.140Z,4.03
2023-05-16T06:44:29.302Z,4.00
2023-05-16T06:47:00.937Z,4.45
2023-05-16T06:49:29.204Z,3.70
2023-05-16T06:51:58.174Z,4.43
2023-05-16T06:54:29.082Z,4.22
2023-05-16T06:56:57.982Z,4.60
2023-05-16T06:59:28.890Z,4.40
2023-05-16T07:01:57.439Z,4.30
2023-05-16T07:04:28.199Z,4.50
2023-05-16T07:06:56.543Z,3.97
2023-05-16T07:09:25.275Z,3.85
2023-05-16T07:11:53.306Z,4.25
2023-05-16T07:14:21.580Z,4.00
2023-05-16T07:16:49.906Z,4.15
2023-05-16T07:19:22.915Z,4.05
2023-05-16T07:21:51.909Z,3.97
2023-05-16T07:24:22.881Z,3.92
2023-05-16T07:26:52.320Z,3.72
2023-05-16T07:29:20.779Z,3.53
2023-05-16T07:31:51.309Z,3.95
2023-05-16T07:34:22.157Z,3.83
2023-05-16T07:36:50.812Z,6.25
2023-05-16T07:39:20.048Z,4.07
2023-05-16T07:41:52.598Z,3.92
2023-05-16T07:46:53.646Z,4.68
2023-05-16T07:49:22.141Z,4.18
2023-05-16T07:51:53.274Z,3.53
2023-05-16T07:54:22.144Z,3.47
2023-05-16T07:56:50.062Z,3.50
2023-05-16T07:59:20.807Z,3.58
2023-05-16T08:01:49.030Z,3.42
2023-05-16T08:04:17.132Z,3.08
2023-05-16T08:07:09.983Z,3.33
2023-05-16T08:10:01.305Z,3.05
2023-05-16T08:12:32.408Z,3.20
2023-05-16T08:15:00.828Z,4.60
2023-05-16T08:17:31.204Z,3.30
2023-05-16T08:20:01.874Z,3.17
2023-05-16T08:22:34.122Z,3.10
2023-05-16T08:27:57.993Z,3.20
2023-05-16T08:30:28.626Z,3.05
2023-05-16T08:32:57.271Z,3.30
2023-05-16T08:35:26.496Z,3.47
2023-05-16T08:37:55.019Z,2.95
2023-05-16T08:40:29.612Z,2.75
2023-05-16T08:43:08.841Z,2.67
2023-05-16T08:45:42.224Z,2.78
2023-05-16T08:48:11.008Z,2.75
2023-05-16T08:50:39.547Z,2.50
2023-05-16T08:53:08.566Z,2.40
2023-05-16T08:55:37.076Z,2.40
2023-05-16T08:58:09.374Z,2.53
2023-05-16T09:00:48.039Z,2.58
2023-05-16T09:03:21.235Z,2.05
2023-05-16T09:05:54.688Z,2.60
2023-05-16T09:09:27.966Z,3.53
2023-05-16T09:11:57.322Z,2.92
2023-05-16T09:14:27.350Z,2.47
2023-05-16T09:17:12.197Z,2.03
2023-05-16T09:19:49.330Z,2.20
2023-05-16T09:22:25.246Z,2.70
2023-05-16T09:24:58.220Z,2.20
2023-05-16T09:27:33.120Z,2.50
2023-05-16T09:30:02.562Z,2.42
2023-05-16T09:32:35.511Z,2.83
2023-05-16T09:35:11.466Z,2.33
2023-05-16T09:37:45.760Z,1.95
2023-05-16T09:40:15.053Z,2.55
2023-05-16T09:42:45.110Z,2.90
2023-05-16T09:45:15.383Z,2.40
2023-05-16T09:47:46.846Z,2.17
2023-05-16T09:50:17.370Z,1.88
2023-05-16T09:52:45.854Z,2.20
2023-05-16T09:55:14.109Z,2.33
2023-05-16T09:57:49.495Z,1.80
2023-05-16T10:00:18.744Z,2.38
2023-05-16T10:02:50.764Z,1.70
2023-05-16T10:05:21.429Z,2.60
2023-05-16T10:07:54.036Z,2.22
2023-05-16T10:10:25.637Z,2.17
2023-05-16T10:12:54.796Z,1.90
2023-05-16T10:15:25.605Z,2.67
2023-05-16T10:17:53.911Z,2.40
2023-05-16T10:20:23.380Z,1.90
2023-05-16T10:22:59.640Z,1.73
2023-05-16T10:25:37.886Z,3.75
2023-05-16T10:28:11.157Z,2.05
2023-05-16T10:30:41.997Z,1.98
2023-05-16T10:33:14.267Z,2.10
2023-05-16T10:35:43.085Z,2.13
2023-05-16T10:38:13.190Z,2.05
2023-05-16T10:40:42.397Z,2.17
2023-05-16T10:43:11.232Z,2.15
2023-05-16T10:45:57.929Z,2.00
2023-05-16T10:48:36.730Z,2.53
2023-05-16T10:51:58.867Z,2.80
2023-05-16T10:54:25.687Z,2.38
2023-05-16T10:57:24.450Z,2.20
2023-05-16T10:59:58.340Z,2.40
2023-05-16T11:05:06.691Z,2.08
2023-05-16T11:07:40.960Z,2.53
2023-05-16T11:10:10.672Z,2.60
2023-05-16T11:12:46.302Z,2.70
2023-05-16T11:15:28.948Z,2.50
2023-05-16T11:18:24.795Z,2.40
2023-05-16T11:20:56.291Z,3.25
2023-05-16T11:23:26.555Z,2.72
2023-05-16T11:26:28.745Z,3.00
2023-05-16T11:29:07.095Z,2.65
2023-05-16T11:31:42.644Z,2.75
2023-05-16T11:34:12.477Z,3.80
2023-05-16T11:36:41.629Z,2.83
2023-05-16T11:39:17.257Z,2.90
2023-05-16T11:41:55.336Z,2.97
2023-05-16T11:44:29.306Z,3.40
2023-05-16T11:48:36.500Z,2.63
2023-05-16T11:51:40.653Z,3.28
2023-05-16T11:54:10.602Z,2.80
2023-05-16T11:56:44.551Z,2.40
2023-05-16T11:59:31.358Z,2.28
2023-05-16T12:02:06.289Z,1.77
2023-05-16T12:05:10.425Z,1.90
2023-05-16T12:07:43.172Z,1.95
2023-05-16T12:10:14.688Z,2.08
2023-05-16T12:12:54.771Z,2.50
2023-05-16T12:52:23.589Z,2.75
2023-05-16T12:55:33.020Z,4.05
2023-05-16T12:58:03.885Z,3.85
2023-05-16T13:01:06.708Z,3.50
2023-05-16T13:08:55.388Z,2.10
2023-05-16T13:14:55.714Z,2.78
2023-05-16T13:17:25.986Z,1.85
2023-05-16T13:45:10.176Z,2.20
2023-05-16T13:47:39.187Z,1.90
2023-05-16T13:50:47.644Z,1.83
2023-05-16T13:53:17.167Z,1.88
2023-05-16T13:55:45.237Z,3.08
2023-05-16T13:58:13.897Z,1.58
2023-05-16T14:00:45.710Z,1.40
2023-05-16T14:03:52.224Z,1.83
2023-05-16T14:06:27.813Z,1.77
2023-05-16T14:11:29.192Z,2.17
2023-05-16T14:14:05.571Z,1.98
2023-05-16T14:19:06.658Z,2.40
2023-05-16T14:21:35.512Z,1.75
2023-05-16T14:24:05.378Z,2.08
2023-05-16T14:26:34.492Z,2.10
2023-05-16T14:29:04.443Z,2.35
2023-05-16T14:31:34.635Z,2.40
2023-05-16T14:34:04.345Z,2.20
2023-05-16T14:36:32.502Z,2.17
2023-05-16T14:39:02.527Z,2.72
2023-05-16T14:41:31.543Z,2.83
2023-05-16T14:44:00.580Z,2.50
2023-05-16T14:46:29.281Z,2.53
2023-05-16T14:49:00.798Z,2.80
2023-05-16T14:51:29.973Z,2.60
2023-05-16T14:53:58.119Z,2.67
2023-05-16T14:56:40.634Z,2.88
2023-05-16T14:59:10.030Z,2.85
2023-05-16T15:01:39.906Z,2.58
2023-05-16T15:04:08.840Z,2.22
2023-05-16T15:06:37.001Z,3.25
2023-05-16T15:09:08.670Z,2.88
2023-05-16T15:11:44.476Z,2.78
2023-05-16T15:14:17.650Z,2.65
2023-05-16T15:17:10.121Z,3.03
2023-05-16T15:20:54.044Z,2.70
2023-05-16T15:23:26.380Z,3.45
2023-05-16T15:31:05.944Z,3.42
2023-05-16T15:33:42.694Z,3.33
2023-05-16T15:36:11.970Z,3.28
2023-05-16T15:38:44.544Z,3.10
2023-05-16T15:41:31.272Z,3.20
2023-05-16T15:44:03.998Z,3.10
2023-05-16T15:46:35.556Z,3.75
2023-05-16T15:49:28.975Z,3.95
2023-05-16T15:51:57.225Z,3.88
2023-05-16T15:54:25.767Z,4.15
2023-05-16T15:56:56.137Z,4.30
2023-05-16T15:59:29.786Z,4.03
2023-05-16T16:02:05.502Z,4.63
2023-05-16T16:04:39.236Z,4.82
2023-05-16T16:07:10.885Z,4.55
2023-05-16T16:09:41.061Z,4.10
2023-05-16T16:12:13.745Z,4.10
2023-05-16T16:14:43.957Z,5.57
2023-05-16T16:17:37.229Z,4.65
2023-05-16T16:21:20.391Z,4.43
2023-05-16T16:24:06.178Z,5.03
2023-05-16T16:26:46.629Z,4.90
2023-05-16T16:29:26.280Z,4.22
2023-05-16T16:32:12.119Z,5.35
2023-05-16T16:34:42.059Z,5.10
2023-05-16T16:41:17.256Z,5.22
2023-05-16T16:43:46.889Z,5.43
2023-05-16T16:46:17.023Z,5.88
2023-05-16T16:48:45.043Z,5.63
2023-05-16T16:51:18.591Z,5.50
2023-05-16T16:53:51.426Z,5.32
2023-05-16T16:56:21.831Z,5.03
2023-05-16T16:58:53.396Z,5.15
2023-05-16T17:01:21.969Z,5.22
2023-05-16T17:03:50.290Z,6.53
2023-05-16T17:06:18.618Z,4.70
2023-05-16T17:08:47.397Z,4.95
2023-05-16T17:11:22.825Z,4.15
2023-05-16T17:13:59.238Z,4.70
2023-05-16T17:16:31.521Z,4.53
2023-05-16T17:18:59.876Z,4.53
2023-05-16T17:21:34.681Z,4.03
2023-05-16T17:24:05.983Z,4.43
2023-05-16T17:26:34.106Z,4.38
2023-05-16T17:29:04.535Z,4.60
2023-05-16T17:31:33.633Z,5.22
2023-05-16T17:34:19.000Z,4.57
2023-05-16T17:36:47.655Z,4.70
2023-05-16T17:39:18.294Z,5.90
2023-05-16T17:41:47.048Z,4.93
2023-05-16T17:44:18.942Z,5.15
2023-05-16T17:46:51.783Z,5.47
2023-05-16T17:49:22.236Z,7.07
2023-05-16T17:51:54.169Z,7.63
2023-05-16T17:54:27.377Z,7.72
2023-05-16T17:56:56.231Z,6.93
2023-05-16T17:59:29.311Z,6.07
2023-05-16T18:02:04.234Z,6.32
2023-05-16T18:04:33.474Z,6.30
2023-05-16T18:07:02.181Z,6.40
2023-05-16T18:09:34.036Z,5.95
2023-05-16T18:12:10.795Z,6.50
2023-05-16T18:14:40.279Z,5.53
2023-05-16T18:17:09.223Z,4.70
2023-05-16T18:20:11.650Z,5.60
2023-05-16T18:22:40.094Z,5.50
2023-05-16T18:25:14.164Z,5.80
2023-05-16T18:27:43.249Z,5.95
2023-05-16T18:30:16.607Z,5.38
2023-05-16T18:32:44.983Z,6.35
2023-05-16T18:35:13.452Z,5.97
2023-05-16T18:37:50.294Z,5.35
2023-05-16T18:40:20.068Z,6.72
2023-05-16T18:42:48.155Z,6.05
2023-05-16T18:45:16.108Z,6.15
2023-05-16T18:47:47.157Z,5.90
2023-05-16T18:50:17.130Z,6.63
2023-05-16T18:52:52.905Z,8.50
2023-05-16T18:55:29.395Z,6.35
2023-05-16T18:57:58.618Z,7.22
2023-05-16T19:00:26.719Z,6.43
2023-05-16T19:03:00.358Z,6.72
2023-05-16T19:05:29.084Z,6.30
2023-05-16T19:07:57.595Z,7.65
2023-05-16T19:10:30.298Z,7.03
2023-05-16T19:15:58.376Z,8.07
2023-05-16T19:18:27.113Z,8.98
2023-05-16T19:20:55.137Z,9.32
2023-05-16T19:23:24.817Z,10.35
2023-05-16T19:25:55.625Z,10.20
2023-05-16T19:28:24.847Z,11.00
2023-05-16T19:30:56.814Z,13.32
2023-05-16T19:33:42.005Z,12.70
2023-05-16T19:36:11.916Z,13.00
2023-05-16T19:38:41.402Z,12.45
2023-05-16T19:41:09.541Z,12.07
2023-05-16T19:43:37.860Z,12.18
2023-05-16T19:46:08.217Z,12.25
2023-05-16T19:48:39.070Z,12.45
2023-05-16T19:51:13.941Z,12.10
2023-05-16T19:53:46.301Z,13.13
2023-05-16T19:56:17.824Z,13.15
2023-05-16T19:58:50.786Z,13.10
2023-05-16T20:01:22.155Z,12.75
2023-05-16T20:03:55.869Z,12.00
2023-05-16T20:06:33.389Z,12.05
2023-05-16T20:09:12.943Z,11.98
2023-05-16T20:11:41.534Z,11.80
2023-05-16T20:14:09.909Z,12.20
2023-05-16T20:16:45.691Z,10.57
2023-05-16T20:19:15.540Z,11.98
2023-05-16T20:21:49.226Z,11.85
2023-05-16T20:24:19.599Z,11.25
2023-05-16T20:26:52.240Z,11.57
2023-05-16T20:29:20.234Z,12.35
2023-05-16T20:31:51.500Z,14.18
2023-05-16T20:34:19.706Z,12.45
2023-05-16T20:36:47.771Z,12.43
2023-05-16T20:39:15.958Z,12.13
2023-05-16T20:41:48.710Z,11.63
2023-05-16T20:44:17.936Z,11.25
2023-05-16T20:46:46.687Z,12.48
2023-05-16T20:49:14.778Z,11.25
2023-05-16T20:51:43.025Z,10.98
2023-05-16T20:54:11.048Z,10.68
2023-05-16T20:56:42.214Z,10.55
2023-05-16T20:59:10.514Z,9.88
2023-05-16T21:01:58.923Z,11.40
2023-05-16T21:04:27.113Z,11.30
2023-05-16T21:06:56.279Z,11.27
2023-05-16T21:09:24.815Z,9.95
2023-05-16T21:11:53.296Z,10.07
2023-05-16T21:14:21.457Z,9.65
2023-05-16T21:16:49.697Z,11.07
2023-05-16T21:19:22.502Z,13.90
2023-05-16T21:21:50.817Z,12.32
2023-05-16T21:24:19.456Z,10.45
2023-05-16T21:26:47.824Z,11.32
2023-05-16T21:29:15.890Z,11.13
2023-05-16T21:31:44.902Z,10.18
2023-05-16T21:34:14.532Z,10.63
2023-05-16T21:36:42.675Z,10.23
2023-05-16T21:39:12.693Z,10.32
2023-05-16T21:41:40.798Z,10.63
2023-05-16T21:44:08.785Z,11.30
2023-05-16T21:46:38.329Z,12.40
2023-05-16T21:49:06.739Z,12.82
2023-05-16T21:51:35.192Z,13.35
2023-05-16T21:54:03.407Z,14.80
2023-05-16T21:56:31.925Z,16.67
2023-05-16T21:59:00.385Z,15.77
2023-05-16T22:01:31.728Z,14.10
2023-05-16T22:04:00.019Z,13.70
2023-05-16T22:06:31.569Z,11.38
2023-05-16T22:09:00.475Z,9.52
2023-05-16T22:11:29.299Z,8.57
2023-05-16T22:13:58.464Z,6.43
2023-05-16T22:16:27.140Z,7.18
2023-05-16T22:18:56.020Z,6.95
2023-05-16T22:21:25.774Z,6.13
2023-05-16T22:23:54.000Z,5.57
2023-05-16T22:26:22.013Z,5.63
2023-05-16T22:28:50.247Z,5.78
2023-05-16T22:31:18.029Z,5.93
2023-05-16T22:33:46.164Z,6.38
2023-05-16T22:36:14.171Z,7.35
2023-05-16T22:38:43.108Z,7.80
2023-05-16T22:41:14.023Z,9.48
2023-05-16T22:43:41.979Z,9.63
2023-05-16T22:46:10.189Z,10.02
2023-05-16T22:48:38.970Z,10.57
2023-05-16T22:51:07.487Z,10.60
2023-05-16T22:53:35.572Z,9.05
2023-05-16T22:56:04.274Z,10.02
2023-05-16T22:58:32.397Z,9.27
2023-05-16T23:01:01.997Z,8.70
2023-05-16T23:03:30.315Z,9.75
2023-05-16T23:05:58.257Z,8.63
2023-05-16T23:08:26.390Z,6.78
2023-05-16T23:10:55.121Z,6.50
2023-05-16T23:13:24.345Z,8.02
2023-05-16T23:15:52.370Z,6.55
2023-05-16T23:18:24.178Z,7.50
2023-05-16T23:20:52.241Z,8.18
2023-05-16T23:23:21.214Z,7.20
2023-05-16T23:25:51.362Z,8.85
2023-05-16T23:28:21.039Z,7.57
2023-05-16T23:30:49.306Z,6.72
2023-05-16T23:33:18.157Z,6.05
2023-05-16T23:35:48.436Z,6.32
2023-05-16T23:38:16.660Z,6.38
2023-05-16T23:40:47.205Z,5.68
2023-05-16T23:43:15.904Z,5.88
2023-05-16T23:45:45.197Z,4.57
2023-05-16T23:48:14.487Z,5.25
2023-05-16T23:50:43.145Z,5.00
2023-05-16T23:53:11.216Z,5.78
2023-05-16T23:55:39.330Z,5.57
2023-05-16T23:58:08.104Z,6.40
